sensor_id;sensor_type;location;lat;lon;timestamp;pressure;altitude;pressure_sealevel;temperature;humidity
48053;BME280;33824;51.600;5.718;2022-12-05T00:00:58;101582.28;;;3.24;93.60
48053;BME280;33824;51.600;5.718;2022-12-05T00:03:35;101592.50;;;3.29;93.73
48053;BME280;33824;51.600;5.718;2022-12-05T00:06:02;101594.06;;;3.31;93.52
48053;BME280;33824;51.600;5.718;2022-12-05T00:08:28;101592.19;;;3.33;93.41
48053;BME280;33824;51.600;5.718;2022-12-05T00:10:53;101597.06;;;3.27;93.60
48053;BME280;33824;51.600;5.718;2022-12-05T00:13:19;101594.59;;;3.36;93.63
48053;BME280;33824;51.600;5.718;2022-12-05T00:15:45;101599.16;;;3.34;93.54
48053;BME280;33824;51.600;5.718;2022-12-05T00:18:10;101583.88;;;3.27;94.08
48053;BME280;33824;51.600;5.718;2022-12-05T00:20:36;101593.34;;;3.29;94.11
48053;BME280;33824;51.600;5.718;2022-12-05T00:23:01;101593.03;;;3.34;93.55
48053;BME280;33824;51.600;5.718;2022-12-05T00:25:27;101590.28;;;3.35;93.77
48053;BME280;33824;51.600;5.718;2022-12-05T00:27:53;101592.34;;;3.43;93.23
48053;BME280;33824;51.600;5.718;2022-12-05T00:30:18;101590.47;;;3.45;93.32
48053;BME280;33824;51.600;5.718;2022-12-05T00:32:44;101589.84;;;3.42;93.21
48053;BME280;33824;51.600;5.718;2022-12-05T00:35:09;101580.03;;;3.44;93.12
48053;BME280;33824;51.600;5.718;2022-12-05T00:37:35;101583.00;;;3.39;93.15
48053;BME280;33824;51.600;5.718;2022-12-05T00:40:01;101581.81;;;3.43;93.18
48053;BME280;33824;51.600;5.718;2022-12-05T00:42:26;101581.16;;;3.52;93.09
48053;BME280;33824;51.600;5.718;2022-12-05T00:44:52;101582.00;;;3.53;93.13
48053;BME280;33824;51.600;5.718;2022-12-05T00:47:19;101580.72;;;3.58;92.39
48053;BME280;33824;51.600;5.718;2022-12-05T00:49:44;101580.22;;;3.53;92.61
48053;BME280;33824;51.600;5.718;2022-12-05T00:52:10;101572.69;;;3.60;92.48
48053;BME280;33824;51.600;5.718;2022-12-05T00:54:35;101579.31;;;3.65;92.37
48053;BME280;33824;51.600;5.718;2022-12-05T00:57:01;101575.00;;;3.64;92.39
48053;BME280;33824;51.600;5.718;2022-12-05T00:59:27;101585.66;;;3.63;92.60
48053;BME280;33824;51.600;5.718;2022-12-05T01:01:55;101577.75;;;3.63;92.37
48053;BME280;33824;51.600;5.718;2022-12-05T01:04:22;101590.59;;;3.67;92.24
48053;BME280;33824;51.600;5.718;2022-12-05T01:06:50;101591.00;;;3.74;91.89
48053;BME280;33824;51.600;5.718;2022-12-05T01:09:18;101592.06;;;3.71;92.27
48053;BME280;33824;51.600;5.718;2022-12-05T01:11:45;101590.75;;;3.77;92.01
48053;BME280;33824;51.600;5.718;2022-12-05T01:14:12;101588.25;;;3.75;92.20
48053;BME280;33824;51.600;5.718;2022-12-05T01:16:40;101593.41;;;3.77;91.88
48053;BME280;33824;51.600;5.718;2022-12-05T01:19:11;101597.00;;;3.76;92.13
48053;BME280;33824;51.600;5.718;2022-12-05T01:21:37;101595.31;;;3.75;92.02
48053;BME280;33824;51.600;5.718;2022-12-05T01:24:03;101607.00;;;3.83;91.80
48053;BME280;33824;51.600;5.718;2022-12-05T01:26:28;101592.72;;;3.86;91.60
48053;BME280;33824;51.600;5.718;2022-12-05T01:28:54;101603.28;;;3.86;91.49
48053;BME280;33824;51.600;5.718;2022-12-05T01:31:27;101600.03;;;3.82;91.65
48053;BME280;33824;51.600;5.718;2022-12-05T01:33:56;101598.97;;;3.85;91.61
48053;BME280;33824;51.600;5.718;2022-12-05T01:36:26;101599.72;;;3.87;91.42
48053;BME280;33824;51.600;5.718;2022-12-05T01:38:52;101602.91;;;3.79;91.68
48053;BME280;33824;51.600;5.718;2022-12-05T01:41:28;101596.81;;;3.66;91.77
48053;BME280;33824;51.600;5.718;2022-12-05T01:44:04;101607.88;;;3.71;91.82
48053;BME280;33824;51.600;5.718;2022-12-05T01:46:32;101620.91;;;3.85;92.02
48053;BME280;33824;51.600;5.718;2022-12-05T01:49:16;101618.22;;;3.74;91.87
48053;BME280;33824;51.600;5.718;2022-12-05T01:51:46;101616.72;;;3.83;92.02
48053;BME280;33824;51.600;5.718;2022-12-05T01:54:14;101611.84;;;3.77;91.90
48053;BME280;33824;51.600;5.718;2022-12-05T01:56:43;101623.88;;;3.81;92.08
48053;BME280;33824;51.600;5.718;2022-12-05T01:59:10;101621.44;;;3.91;91.89
48053;BME280;33824;51.600;5.718;2022-12-05T02:01:37;101622.28;;;3.91;91.44
48053;BME280;33824;51.600;5.718;2022-12-05T02:04:03;101620.47;;;3.92;91.68
48053;BME280;33824;51.600;5.718;2022-12-05T02:06:31;101626.31;;;3.84;91.79
48053;BME280;33824;51.600;5.718;2022-12-05T02:08:57;101617.31;;;3.86;91.99
48053;BME280;33824;51.600;5.718;2022-12-05T02:11:24;101618.56;;;3.94;91.40
48053;BME280;33824;51.600;5.718;2022-12-05T02:16:43;101622.53;;;3.75;91.88
48053;BME280;33824;51.600;5.718;2022-12-05T02:19:36;101622.88;;;3.71;91.85
48053;BME280;33824;51.600;5.718;2022-12-05T02:24:54;101625.66;;;3.80;92.38
48053;BME280;33824;51.600;5.718;2022-12-05T02:27:36;101631.50;;;3.73;91.93
48053;BME280;33824;51.600;5.718;2022-12-05T02:30:10;101629.16;;;3.81;92.15
48053;BME280;33824;51.600;5.718;2022-12-05T02:35:35;101624.25;;;3.76;91.97
48053;BME280;33824;51.600;5.718;2022-12-05T02:38:11;101614.63;;;3.75;92.59
48053;BME280;33824;51.600;5.718;2022-12-05T02:43:30;101619.91;;;3.75;92.40
48053;BME280;33824;51.600;5.718;2022-12-05T02:45:59;101620.38;;;3.80;92.72
48053;BME280;33824;51.600;5.718;2022-12-05T02:48:27;101626.94;;;3.88;92.32
48053;BME280;33824;51.600;5.718;2022-12-05T02:50:56;101624.84;;;3.80;92.35
48053;BME280;33824;51.600;5.718;2022-12-05T02:53:24;101625.34;;;3.85;92.62
48053;BME280;33824;51.600;5.718;2022-12-05T02:55:51;101626.31;;;3.84;92.26
48053;BME280;33824;51.600;5.718;2022-12-05T02:58:22;101628.31;;;3.80;92.37
48053;BME280;33824;51.600;5.718;2022-12-05T03:00:49;101626.41;;;3.82;92.75
48053;BME280;33824;51.600;5.718;2022-12-05T03:03:20;101626.19;;;3.85;92.67
48053;BME280;33824;51.600;5.718;2022-12-05T03:05:53;101625.94;;;3.88;92.34
48053;BME280;33824;51.600;5.718;2022-12-05T03:08:24;101624.00;;;3.79;92.82
48053;BME280;33824;51.600;5.718;2022-12-05T03:10:52;101627.19;;;3.72;93.25
48053;BME280;33824;51.600;5.718;2022-12-05T03:13:34;101626.34;;;3.71;92.96
48053;BME280;33824;51.600;5.718;2022-12-05T03:16:06;101623.72;;;3.71;93.52
48053;BME280;33824;51.600;5.718;2022-12-05T03:18:39;101626.41;;;3.82;93.42
48053;BME280;33824;51.600;5.718;2022-12-05T03:21:36;101623.03;;;3.80;92.88
48053;BME280;33824;51.600;5.718;2022-12-05T03:24:04;101628.94;;;3.84;92.97
48053;BME280;33824;51.600;5.718;2022-12-05T03:29:52;101621.09;;;3.71;93.34
48053;BME280;33824;51.600;5.718;2022-12-05T03:32:35;101619.38;;;3.70;94.18
48053;BME280;33824;51.600;5.718;2022-12-05T03:35:17;101622.22;;;3.80;93.25
48053;BME280;33824;51.600;5.718;2022-12-05T03:38:02;101618.13;;;3.76;93.65
48053;BME280;33824;51.600;5.718;2022-12-05T03:40:33;101621.69;;;3.75;94.37
48053;BME280;33824;51.600;5.718;2022-12-05T03:43:07;101620.38;;;3.80;94.03
48053;BME280;33824;51.600;5.718;2022-12-05T03:45:38;101611.84;;;3.77;94.10
48053;BME280;33824;51.600;5.718;2022-12-05T03:48:29;101617.59;;;3.71;94.32
48053;BME280;33824;51.600;5.718;2022-12-05T03:50:58;101617.75;;;3.80;94.34
48053;BME280;33824;51.600;5.718;2022-12-05T03:53:33;101618.84;;;3.78;94.19
48053;BME280;33824;51.600;5.718;2022-12-05T03:56:09;101621.78;;;3.73;94.34
48053;BME280;33824;51.600;5.718;2022-12-05T03:58:47;101621.41;;;3.67;94.75
48053;BME280;33824;51.600;5.718;2022-12-05T04:01:16;101619.06;;;3.75;94.80
48053;BME280;33824;51.600;5.718;2022-12-05T04:03:47;101617.25;;;3.75;95.02
48053;BME280;33824;51.600;5.718;2022-12-05T04:06:29;101618.16;;;3.63;95.67
48053;BME280;33824;51.600;5.718;2022-12-05T04:09:09;101615.28;;;3.66;95.67
48053;BME280;33824;51.600;5.718;2022-12-05T04:11:40;101620.34;;;3.69;95.72
48053;BME280;33824;51.600;5.718;2022-12-05T04:14:34;101621.00;;;3.60;95.96
48053;BME280;33824;51.600;5.718;2022-12-05T04:17:08;101627.19;;;3.72;95.49
48053;BME280;33824;51.600;5.718;2022-12-05T04:19:47;101625.41;;;3.72;95.31
48053;BME280;33824;51.600;5.718;2022-12-05T04:22:35;101634.66;;;3.78;95.68
48053;BME280;33824;51.600;5.718;2022-12-05T04:25:04;101641.41;;;3.82;95.36
48053;BME280;33824;51.600;5.718;2022-12-05T04:28:19;101641.56;;;3.68;95.61
48053;BME280;33824;51.600;5.718;2022-12-05T04:31:19;101630.69;;;3.72;95.67
48053;BME280;33824;51.600;5.718;2022-12-05T04:33:50;101639.09;;;3.77;96.07
48053;BME280;33824;51.600;5.718;2022-12-05T04:36:25;101631.41;;;3.74;96.08
48053;BME280;33824;51.600;5.718;2022-12-05T04:39:05;101636.06;;;3.71;95.71
48053;BME280;33824;51.600;5.718;2022-12-05T04:41:35;101632.88;;;3.78;95.83
48053;BME280;33824;51.600;5.718;2022-12-05T04:44:06;101632.97;;;3.77;95.60
48053;BME280;33824;51.600;5.718;2022-12-05T04:46:34;101639.69;;;3.81;95.91
48053;BME280;33824;51.600;5.718;2022-12-05T04:49:02;101638.75;;;3.82;95.56
48053;BME280;33824;51.600;5.718;2022-12-05T04:51:33;101637.91;;;3.81;96.14
48053;BME280;33824;51.600;5.718;2022-12-05T04:54:04;101642.00;;;3.85;95.55
48053;BME280;33824;51.600;5.718;2022-12-05T04:56:33;101637.47;;;3.88;96.01
48053;BME280;33824;51.600;5.718;2022-12-05T04:59:01;101641.59;;;3.92;95.67
48053;BME280;33824;51.600;5.718;2022-12-05T05:01:41;101642.00;;;3.85;95.94
48053;BME280;33824;51.600;5.718;2022-12-05T05:04:20;101641.78;;;3.88;95.63
48053;BME280;33824;51.600;5.718;2022-12-05T05:06:46;101640.19;;;3.99;95.50
48053;BME280;33824;51.600;5.718;2022-12-05T05:09:12;101640.03;;;4.00;96.02
48053;BME280;33824;51.600;5.718;2022-12-05T05:11:37;101642.81;;;3.99;95.68
48053;BME280;33824;51.600;5.718;2022-12-05T05:14:04;101647.13;;;4.00;95.73
48053;BME280;33824;51.600;5.718;2022-12-05T05:16:36;101649.75;;;4.00;95.60
48053;BME280;33824;51.600;5.718;2022-12-05T05:19:02;101648.56;;;4.04;95.71
48053;BME280;33824;51.600;5.718;2022-12-05T05:21:30;101643.66;;;3.99;95.98
48053;BME280;33824;51.600;5.718;2022-12-05T05:23:57;101651.13;;;4.05;95.45
48053;BME280;33824;51.600;5.718;2022-12-05T05:26:23;101645.63;;;4.08;95.49
48053;BME280;33824;51.600;5.718;2022-12-05T05:28:50;101643.81;;;4.09;95.51
48053;BME280;33824;51.600;5.718;2022-12-05T05:31:17;101654.16;;;4.12;95.38
48053;BME280;33824;51.600;5.718;2022-12-05T05:33:43;101660.16;;;4.14;95.23
48053;BME280;33824;51.600;5.718;2022-12-05T05:36:12;101661.97;;;4.13;95.30
48053;BME280;33824;51.600;5.718;2022-12-05T05:38:40;101664.59;;;4.13;95.78
48053;BME280;33824;51.600;5.718;2022-12-05T05:41:19;101648.03;;;4.11;95.36
48053;BME280;33824;51.600;5.718;2022-12-05T05:43:45;101649.47;;;4.15;95.40
48053;BME280;33824;51.600;5.718;2022-12-05T05:46:11;101651.16;;;4.16;95.43
48053;BME280;33824;51.600;5.718;2022-12-05T05:48:38;101657.19;;;4.18;95.28
48053;BME280;33824;51.600;5.718;2022-12-05T05:51:05;101653.84;;;4.27;94.91
48053;BME280;33824;51.600;5.718;2022-12-05T05:53:32;101658.69;;;4.33;94.71
48053;BME280;33824;51.600;5.718;2022-12-05T05:56:04;101658.44;;;4.25;94.59
48053;BME280;33824;51.600;5.718;2022-12-05T05:58:30;101654.47;;;4.31;94.97
48053;BME280;33824;51.600;5.718;2022-12-05T06:01:07;101654.44;;;4.20;94.68
48053;BME280;33824;51.600;5.718;2022-12-05T06:03:34;101654.94;;;4.25;94.72
48053;BME280;33824;51.600;5.718;2022-12-05T06:06:03;101660.22;;;4.25;95.20
48053;BME280;33824;51.600;5.718;2022-12-05T06:08:31;101665.78;;;4.33;94.32
48053;BME280;33824;51.600;5.718;2022-12-05T06:10:57;101663.56;;;4.27;94.57
48053;BME280;33824;51.600;5.718;2022-12-05T06:13:23;101666.53;;;4.22;94.82
48053;BME280;33824;51.600;5.718;2022-12-05T06:15:50;101662.34;;;4.20;94.54
48053;BME280;33824;51.600;5.718;2022-12-05T06:18:16;101666.91;;;4.18;94.58
48053;BME280;33824;51.600;5.718;2022-12-05T06:20:51;101672.84;;;4.09;95.01
48053;BME280;33824;51.600;5.718;2022-12-05T06:23:16;101670.72;;;4.14;94.87
48053;BME280;33824;51.600;5.718;2022-12-05T06:25:47;101667.00;;;4.16;94.78
48053;BME280;33824;51.600;5.718;2022-12-05T06:28:13;101673.50;;;4.23;94.88
48053;BME280;33824;51.600;5.718;2022-12-05T06:30:39;101669.59;;;4.29;95.09
48053;BME280;33824;51.600;5.718;2022-12-05T06:33:04;101669.38;;;4.32;95.02
48053;BME280;33824;51.600;5.718;2022-12-05T06:35:30;101667.44;;;4.34;94.83
48053;BME280;33824;51.600;5.718;2022-12-05T06:37:55;101670.69;;;4.38;94.83
48053;BME280;33824;51.600;5.718;2022-12-05T06:40:21;101669.59;;;4.29;94.53
48053;BME280;33824;51.600;5.718;2022-12-05T06:42:47;101668.84;;;4.27;95.01
48053;BME280;33824;51.600;5.718;2022-12-05T06:45:12;101672.84;;;4.32;94.89
48053;BME280;33824;51.600;5.718;2022-12-05T06:47:38;101663.56;;;4.27;94.82
48053;BME280;33824;51.600;5.718;2022-12-05T06:50:03;101667.19;;;4.26;94.69
48053;BME280;33824;51.600;5.718;2022-12-05T06:52:29;101672.81;;;4.21;94.75
48053;BME280;33824;51.600;5.718;2022-12-05T06:54:55;101671.72;;;4.24;94.98
48053;BME280;33824;51.600;5.718;2022-12-05T06:57:20;101670.53;;;4.28;95.26
48053;BME280;33824;51.600;5.718;2022-12-05T06:59:46;101676.78;;;4.27;94.92
48053;BME280;33824;51.600;5.718;2022-12-05T07:02:12;101682.06;;;4.27;95.52
48053;BME280;33824;51.600;5.718;2022-12-05T07:04:37;101682.91;;;4.27;95.21
48053;BME280;33824;51.600;5.718;2022-12-05T07:07:03;101686.03;;;4.32;94.95
48053;BME280;33824;51.600;5.718;2022-12-05T07:09:29;101686.75;;;4.34;95.20
48053;BME280;33824;51.600;5.718;2022-12-05T07:12:20;101693.97;;;4.32;95.18
48053;BME280;33824;51.600;5.718;2022-12-05T07:14:46;101697.22;;;4.36;95.37
48053;BME280;33824;51.600;5.718;2022-12-05T07:17:12;101699.63;;;4.39;95.17
48053;BME280;33824;51.600;5.718;2022-12-05T07:19:37;101705.00;;;4.38;95.25
48053;BME280;33824;51.600;5.718;2022-12-05T07:22:03;101699.28;;;4.44;94.99
48053;BME280;33824;51.600;5.718;2022-12-05T07:24:28;101704.72;;;4.53;95.28
48053;BME280;33824;51.600;5.718;2022-12-05T07:26:54;101710.75;;;4.55;95.08
48053;BME280;33824;51.600;5.718;2022-12-05T07:29:20;101714.84;;;4.59;94.90
48053;BME280;33824;51.600;5.718;2022-12-05T07:31:45;101717.03;;;4.65;94.54
48053;BME280;33824;51.600;5.718;2022-12-05T07:34:11;101713.44;;;4.66;94.87
48053;BME280;33824;51.600;5.718;2022-12-05T07:36:37;101709.84;;;4.67;94.73
48053;BME280;33824;51.600;5.718;2022-12-05T07:39:02;101710.19;;;4.63;94.73
48053;BME280;33824;51.600;5.718;2022-12-05T07:41:30;101702.63;;;4.69;94.63
48053;BME280;33824;51.600;5.718;2022-12-05T07:43:58;101704.69;;;4.77;94.81
48053;BME280;33824;51.600;5.718;2022-12-05T07:46:25;101713.22;;;4.80;94.08
48053;BME280;33824;51.600;5.718;2022-12-05T07:48:51;101716.94;;;4.78;94.20
48053;BME280;33824;51.600;5.718;2022-12-05T07:51:17;101710.13;;;4.75;94.27
48053;BME280;33824;51.600;5.718;2022-12-05T07:53:44;101718.66;;;4.79;94.55
48053;BME280;33824;51.600;5.718;2022-12-05T07:56:13;101717.81;;;4.78;94.13
48053;BME280;33824;51.600;5.718;2022-12-05T07:58:41;101717.66;;;4.80;94.15
48053;BME280;33824;51.600;5.718;2022-12-05T08:01:10;101722.59;;;4.84;94.26
48053;BME280;33824;51.600;5.718;2022-12-05T08:03:36;101726.81;;;4.87;94.14
48053;BME280;33824;51.600;5.718;2022-12-05T08:06:09;101732.47;;;4.82;94.12
48053;BME280;33824;51.600;5.718;2022-12-05T08:08:35;101732.94;;;4.88;94.06
48053;BME280;33824;51.600;5.718;2022-12-05T08:11:03;101733.91;;;4.87;93.81
48053;BME280;33824;51.600;5.718;2022-12-05T08:13:29;101742.91;;;4.84;93.98
48053;BME280;33824;51.600;5.718;2022-12-05T08:15:55;101735.81;;;4.84;94.08
48053;BME280;33824;51.600;5.718;2022-12-05T08:18:24;101745.16;;;4.77;93.92
48053;BME280;33824;51.600;5.718;2022-12-05T08:20:49;101746.13;;;4.76;94.15
48053;BME280;33824;51.600;5.718;2022-12-05T08:23:15;101748.03;;;4.74;94.29
48053;BME280;33824;51.600;5.718;2022-12-05T08:25:40;101749.75;;;4.75;93.83
48053;BME280;33824;51.600;5.718;2022-12-05T08:28:06;101750.56;;;4.76;94.11
48053;BME280;33824;51.600;5.718;2022-12-05T08:30:32;101750.56;;;4.76;94.33
48053;BME280;33824;51.600;5.718;2022-12-05T08:32:58;101754.19;;;4.75;94.06
48053;BME280;33824;51.600;5.718;2022-12-05T08:35:23;101763.56;;;4.79;94.19
48053;BME280;33824;51.600;5.718;2022-12-05T08:37:49;101763.66;;;4.77;93.82
48053;BME280;33824;51.600;5.718;2022-12-05T08:40:14;101754.19;;;4.75;94.04
48053;BME280;33824;51.600;5.718;2022-12-05T08:42:40;101766.22;;;4.79;94.48
48053;BME280;33824;51.600;5.718;2022-12-05T08:45:06;101764.19;;;4.82;94.43
48053;BME280;33824;51.600;5.718;2022-12-05T08:47:31;101761.81;;;4.91;94.47
48053;BME280;33824;51.600;5.718;2022-12-05T08:50:00;101763.09;;;4.85;93.86
48053;BME280;33824;51.600;5.718;2022-12-05T08:52:26;101759.97;;;4.91;93.82
48053;BME280;33824;51.600;5.718;2022-12-05T08:54:52;101756.38;;;4.92;93.70
48053;BME280;33824;51.600;5.718;2022-12-05T08:57:17;101759.97;;;4.91;93.98
48053;BME280;33824;51.600;5.718;2022-12-05T08:59:43;101773.16;;;4.80;93.56
48053;BME280;33824;51.600;5.718;2022-12-05T09:02:09;101775.94;;;4.78;93.74
48053;BME280;33824;51.600;5.718;2022-12-05T09:04:35;101773.72;;;4.72;93.79
48053;BME280;33824;51.600;5.718;2022-12-05T09:07:01;101783.44;;;4.72;93.55
48053;BME280;33824;51.600;5.718;2022-12-05T09:09:28;101782.13;;;4.66;93.89
48053;BME280;33824;51.600;5.718;2022-12-05T09:11:54;101788.25;;;4.67;94.25
48053;BME280;33824;51.600;5.718;2022-12-05T09:14:19;101788.44;;;4.53;93.52
48053;BME280;33824;51.600;5.718;2022-12-05T09:16:46;101785.66;;;4.54;93.69
48053;BME280;33824;51.600;5.718;2022-12-05T09:19:14;101784.09;;;4.52;94.10
48053;BME280;33824;51.600;5.718;2022-12-05T09:21:42;101787.69;;;4.51;94.25
48053;BME280;33824;51.600;5.718;2022-12-05T09:24:09;101793.81;;;4.51;93.63
48053;BME280;33824;51.600;5.718;2022-12-05T09:26:35;101799.09;;;4.51;93.97
48053;BME280;33824;51.600;5.718;2022-12-05T09:29:01;101795.94;;;4.46;94.10
48053;BME280;33824;51.600;5.718;2022-12-05T09:31:27;101801.44;;;4.43;94.24
48053;BME280;33824;51.600;5.718;2022-12-05T09:33:55;101797.84;;;4.44;94.01
48053;BME280;33824;51.600;5.718;2022-12-05T09:36:28;101801.91;;;4.37;93.84
48053;BME280;33824;51.600;5.718;2022-12-05T09:38:58;101802.28;;;4.44;94.13
48053;BME280;33824;51.600;5.718;2022-12-05T09:41:37;101804.53;;;4.37;94.30
48053;BME280;33824;51.600;5.718;2022-12-05T09:49:49;101812.72;;;4.09;94.17
48053;BME280;33824;51.600;5.718;2022-12-05T09:52:52;101809.91;;;3.99;93.68
48053;BME280;33824;51.600;5.718;2022-12-05T09:55:16;101820.47;;;3.99;94.32
48053;BME280;33824;51.600;5.718;2022-12-05T09:57:48;101818.94;;;4.08;94.25
48053;BME280;33824;51.600;5.718;2022-12-05T10:00:15;101817.56;;;4.15;93.96
48053;BME280;33824;51.600;5.718;2022-12-05T10:03:10;101819.56;;;4.11;94.02
48053;BME280;33824;51.600;5.718;2022-12-05T10:05:50;101808.81;;;4.14;94.08
48053;BME280;33824;51.600;5.718;2022-12-05T10:08:47;101823.28;;;4.09;93.75
48053;BME280;33824;51.600;5.718;2022-12-05T10:14:01;101814.28;;;4.24;93.68
48053;BME280;33824;51.600;5.718;2022-12-05T10:16:34;101819.16;;;4.17;93.83
48053;BME280;33824;51.600;5.718;2022-12-05T10:19:08;101822.50;;;4.19;93.91
48053;BME280;33824;51.600;5.718;2022-12-05T10:21:50;101817.16;;;4.08;94.03
48053;BME280;33824;51.600;5.718;2022-12-05T10:24:25;101820.75;;;4.07;93.66
48053;BME280;33824;51.600;5.718;2022-12-05T10:26:59;101810.19;;;4.07;93.94
48053;BME280;33824;51.600;5.718;2022-12-05T10:29:49;101813.16;;;4.03;93.74
48053;BME280;33824;51.600;5.718;2022-12-05T10:32:31;101818.84;;;4.09;93.90
48053;BME280;33824;51.600;5.718;2022-12-05T10:35:22;101812.63;;;4.10;93.98
48053;BME280;33824;51.600;5.718;2022-12-05T10:37:51;101816.19;;;4.22;93.70
48053;BME280;33824;51.600;5.718;2022-12-05T10:40:18;101815.75;;;4.28;93.83
48053;BME280;33824;51.600;5.718;2022-12-05T10:42:44;101826.06;;;4.31;93.72
48053;BME280;33824;51.600;5.718;2022-12-05T10:45:21;101821.25;;;4.25;93.35
48053;BME280;33824;51.600;5.718;2022-12-05T10:47:48;101828.63;;;4.32;93.64
48053;BME280;33824;51.600;5.718;2022-12-05T10:50:35;101821.66;;;4.31;93.92
48053;BME280;33824;51.600;5.718;2022-12-05T10:53:02;101819.19;;;4.41;94.02
48053;BME280;33824;51.600;5.718;2022-12-05T10:55:35;101815.16;;;4.48;93.98
48053;BME280;33824;51.600;5.718;2022-12-05T10:58:25;101818.13;;;4.44;93.72
48053;BME280;33824;51.600;5.718;2022-12-05T11:00:54;101812.19;;;4.53;93.76
48053;BME280;33824;51.600;5.718;2022-12-05T11:03:33;101822.94;;;4.50;93.39
48053;BME280;33824;51.600;5.718;2022-12-05T11:06:02;101813.06;;;4.64;93.71
48053;BME280;33824;51.600;5.718;2022-12-05T11:08:38;101811.56;;;4.73;93.55
48053;BME280;33824;51.600;5.718;2022-12-05T11:13:50;101799.81;;;4.77;93.33
48053;BME280;33824;51.600;5.718;2022-12-05T11:16:23;101792.88;;;4.87;92.97
48053;BME280;33824;51.600;5.718;2022-12-05T11:18:49;101785.13;;;4.97;92.82
48053;BME280;33824;51.600;5.718;2022-12-05T11:21:15;101791.84;;;5.01;92.83
48053;BME280;33824;51.600;5.718;2022-12-05T11:23:44;101789.72;;;5.06;92.94
48053;BME280;33824;51.600;5.718;2022-12-05T11:26:36;101791.34;;;4.96;92.77
48053;BME280;33824;51.600;5.718;2022-12-05T11:29:03;101792.75;;;5.12;92.79
48053;BME280;33824;51.600;5.718;2022-12-05T11:31:30;101797.69;;;5.17;92.41
48053;BME280;33824;51.600;5.718;2022-12-05T11:34:09;101791.66;;;5.15;92.50
48053;BME280;33824;51.600;5.718;2022-12-05T11:36:40;101795.03;;;5.17;92.50
48053;BME280;33824;51.600;5.718;2022-12-05T11:39:09;101804.19;;;5.24;92.21
48053;BME280;33824;51.600;5.718;2022-12-05T11:44:42;101799.00;;;5.22;92.10
48053;BME280;33824;51.600;5.718;2022-12-05T11:47:39;101799.00;;;5.22;91.43
48053;BME280;33824;51.600;5.718;2022-12-05T11:50:27;101795.91;;;5.28;92.09
48053;BME280;33824;51.600;5.718;2022-12-05T11:53:06;101793.91;;;5.43;92.23
48053;BME280;33824;51.600;5.718;2022-12-05T12:01:10;101788.25;;;5.59;91.71
48053;BME280;33824;51.600;5.718;2022-12-05T12:11:50;101793.81;;;5.78;91.05
48053;BME280;33824;51.600;5.718;2022-12-05T12:17:20;101792.25;;;5.87;90.84
48053;BME280;33824;51.600;5.718;2022-12-05T12:27:55;101793.06;;;5.76;90.58
48053;BME280;33824;51.600;5.718;2022-12-05T12:33:13;101791.91;;;5.91;91.14
48053;BME280;33824;51.600;5.718;2022-12-05T12:35:49;101786.13;;;5.86;90.50
48053;BME280;33824;51.600;5.718;2022-12-05T12:40:54;101780.47;;;5.91;90.15
48053;BME280;33824;51.600;5.718;2022-12-05T12:43:46;101781.22;;;5.93;90.34
48053;BME280;33824;51.600;5.718;2022-12-05T12:51:31;101773.25;;;5.93;90.11
48053;BME280;33824;51.600;5.718;2022-12-05T12:54:06;101775.19;;;5.91;89.97
48053;BME280;33824;51.600;5.718;2022-12-05T13:04:54;101777.78;;;5.79;90.22
48053;BME280;33824;51.600;5.718;2022-12-05T13:07:29;101768.31;;;5.88;90.34
48053;BME280;33824;51.600;5.718;2022-12-05T13:10:17;101771.81;;;5.89;89.65
48053;BME280;33824;51.600;5.718;2022-12-05T13:12:48;101761.94;;;5.91;89.97
48053;BME280;33824;51.600;5.718;2022-12-05T13:15:17;101760.50;;;5.87;89.97
48053;BME280;33824;51.600;5.718;2022-12-05T13:17:46;101760.13;;;5.91;90.08
48053;BME280;33824;51.600;5.718;2022-12-05T13:20:15;101758.09;;;5.95;90.06
48053;BME280;33824;51.600;5.718;2022-12-05T13:22:41;101765.56;;;6.01;90.15
48053;BME280;33824;51.600;5.718;2022-12-05T13:25:13;101758.94;;;5.95;90.01
48053;BME280;33824;51.600;5.718;2022-12-05T13:27:39;101756.53;;;6.03;90.09
48053;BME280;33824;51.600;5.718;2022-12-05T13:30:16;101754.97;;;6.01;89.80
48053;BME280;33824;51.600;5.718;2022-12-05T13:32:43;101758.81;;;6.08;89.71
48053;BME280;33824;51.600;5.718;2022-12-05T13:35:11;101757.97;;;6.07;89.57
48053;BME280;33824;51.600;5.718;2022-12-05T13:37:46;101758.91;;;6.06;89.53
48053;BME280;33824;51.600;5.718;2022-12-05T13:40:32;101756.75;;;6.11;89.41
48053;BME280;33824;51.600;5.718;2022-12-05T13:43:24;101758.81;;;6.08;90.04
48053;BME280;33824;51.600;5.718;2022-12-05T13:45:59;101758.81;;;6.08;89.23
48053;BME280;33824;51.600;5.718;2022-12-05T13:48:27;101758.06;;;6.17;89.38
48053;BME280;33824;51.600;5.718;2022-12-05T13:50:59;101759.25;;;6.13;89.82
48053;BME280;33824;51.600;5.718;2022-12-05T13:53:40;101766.84;;;6.17;90.04
48053;BME280;33824;51.600;5.718;2022-12-05T13:58:50;101766.84;;;6.17;89.21
48053;BME280;33824;51.600;5.718;2022-12-05T14:17:30;101768.91;;;6.14;90.21
48053;BME280;33824;51.600;5.718;2022-12-05T14:28:58;101777.19;;;6.09;90.11
48053;BME280;33824;51.600;5.718;2022-12-05T14:34:25;101782.13;;;6.14;89.93
48053;BME280;33824;51.600;5.718;2022-12-05T14:39:37;101782.28;;;6.12;90.02
48053;BME280;33824;51.600;5.718;2022-12-05T14:42:18;101785.25;;;6.19;89.52
48053;BME280;33824;51.600;5.718;2022-12-05T14:44:49;101779.97;;;6.19;89.65
48053;BME280;33824;51.600;5.718;2022-12-05T14:47:21;101785.38;;;6.17;89.53
48053;BME280;33824;51.600;5.718;2022-12-05T14:50:33;101779.50;;;6.03;89.61
48053;BME280;33824;51.600;5.718;2022-12-05T14:55:40;101784.53;;;6.17;89.77
48053;BME280;33824;51.600;5.718;2022-12-05T14:58:15;101785.75;;;6.13;90.27
48053;BME280;33824;51.600;5.718;2022-12-05T15:00:44;101778.63;;;6.13;89.83
48053;BME280;33824;51.600;5.718;2022-12-05T15:03:20;101782.75;;;6.06;89.72
48053;BME280;33824;51.600;5.718;2022-12-05T15:05:48;101781.03;;;6.16;90.16
48053;BME280;33824;51.600;5.718;2022-12-05T15:08:14;101785.13;;;6.20;90.00